createdAt,value
2019-03-06T00:00:35.132Z,99.90
2019-03-06T00:03:09.471Z,99.90
2019-03-06T00:05:42.035Z,99.90
2019-03-06T00:08:12.547Z,99.90
2019-03-06T00:10:43.199Z,99.90
2019-03-06T00:13:17.883Z,99.90
2019-03-06T00:15:48.828Z,99.90
2019-03-06T00:18:20.408Z,99.90
2019-03-06T00:20:50.883Z,99.90
2019-03-06T00:23:25.178Z,99.90
2019-03-06T00:25:57.081Z,99.90
2019-03-06T00:28:31.892Z,99.90
2019-03-06T00:31:03.455Z,99.90
2019-03-06T00:33:34.211Z,99.90
2019-03-06T00:36:12.860Z,99.90
2019-03-06T00:38:43.391Z,99.90
2019-03-06T00:41:24.193Z,99.90
2019-03-06T00:43:58.500Z,99.90
2019-03-06T00:46:30.768Z,99.90
2019-03-06T00:49:04.379Z,99.90
2019-03-06T00:51:37.779Z,99.90
2019-03-06T00:54:08.451Z,99.90
2019-03-06T00:56:41.797Z,99.90
2019-03-06T00:59:12.312Z,99.90
2019-03-06T01:01:44.506Z,99.90
2019-03-06T01:04:15.037Z,99.90
2019-03-06T01:06:46.876Z,99.90
2019-03-06T01:09:17.691Z,99.90
2019-03-06T01:11:48.492Z,99.90
2019-03-06T01:14:20.156Z,99.90
2019-03-06T01:16:53.939Z,99.90
2019-03-06T01:19:29.476Z,99.90
2019-03-06T01:22:00.186Z,99.90
2019-03-06T01:24:30.699Z,99.90
2019-03-06T01:27:01.245Z,99.90
2019-03-06T01:29:32.410Z,99.90
2019-03-06T01:32:06.409Z,99.90
2019-03-06T01:35:13.191Z,99.90
2019-03-06T01:37:56.008Z,99.90
2019-03-06T01:40:47.337Z,99.90
2019-03-06T01:43:33.139Z,99.90
2019-03-06T01:46:05.644Z,99.90
2019-03-06T01:48:39.348Z,99.90
2019-03-06T01:51:11.670Z,99.90
2019-03-06T01:53:42.920Z,99.90
2019-03-06T01:56:13.384Z,99.90
2019-03-06T01:58:47.989Z,99.90
2019-03-06T02:01:18.619Z,99.90
2019-03-06T02:03:51.398Z,99.90
2019-03-06T02:06:22.149Z,99.90
2019-03-06T02:08:52.888Z,99.90
2019-03-06T02:11:26.329Z,99.90
2019-03-06T02:13:56.944Z,99.90
2019-03-06T02:16:29.820Z,99.90
2019-03-06T02:19:01.442Z,99.90
2019-03-06T02:21:32.012Z,99.90
2019-03-06T02:24:02.568Z,99.90
2019-03-06T02:26:34.632Z,99.90
2019-03-06T02:29:08.003Z,99.90
2019-03-06T02:31:38.771Z,99.90
2019-03-06T02:34:09.293Z,99.90
2019-03-06T02:36:41.453Z,99.90
2019-03-06T02:39:13.243Z,99.90
2019-03-06T02:41:45.345Z,99.90
2019-03-06T02:44:15.925Z,99.90
2019-03-06T02:46:46.517Z,99.90
2019-03-06T02:49:19.902Z,99.90
2019-03-06T02:51:50.614Z,99.90
2019-03-06T02:54:23.965Z,99.90
2019-03-06T02:56:57.618Z,99.90
2019-03-06T02:59:34.180Z,99.90
2019-03-06T03:02:29.182Z,99.90
2019-03-06T03:05:28.640Z,99.90
2019-03-06T03:08:05.854Z,99.90
2019-03-06T03:10:36.503Z,99.90
2019-03-06T03:13:09.984Z,99.90
2019-03-06T03:15:40.484Z,99.90
2019-03-06T03:18:14.631Z,99.90
2019-03-06T03:20:46.799Z,99.90
2019-03-06T03:23:17.411Z,99.90
2019-03-06T03:25:50.921Z,99.90
2019-03-06T03:28:21.885Z,99.90
2019-03-06T03:30:55.088Z,99.90
2019-03-06T03:33:26.220Z,99.90
2019-03-06T03:35:56.825Z,99.90
2019-03-06T03:38:27.361Z,99.90
2019-03-06T03:41:04.146Z,99.90
2019-03-06T03:43:35.786Z,99.90
2019-03-06T03:46:08.246Z,99.90
2019-03-06T03:48:38.845Z,99.90
2019-03-06T03:51:11.189Z,99.90
2019-03-06T03:53:41.810Z,99.90
2019-03-06T03:56:17.510Z,99.90
2019-03-06T03:58:54.010Z,99.90
2019-03-06T04:01:24.712Z,99.90
2019-03-06T04:03:55.348Z,99.90
2019-03-06T04:06:26.125Z,99.90
2019-03-06T04:08:56.815Z,99.90
2019-03-06T04:11:27.783Z,99.90
2019-03-06T04:13:58.690Z,99.90
2019-03-06T04:16:30.335Z,99.90
2019-03-06T04:19:00.906Z,99.90
2019-03-06T04:21:36.375Z,99.90
2019-03-06T04:24:09.219Z,99.90
2019-03-06T04:26:42.868Z,99.90
2019-03-06T04:29:15.315Z,99.90
2019-03-06T04:31:45.938Z,99.90
2019-03-06T04:34:16.582Z,99.90
2019-03-06T04:36:47.173Z,99.90
2019-03-06T04:39:17.944Z,99.90
2019-03-06T04:41:48.761Z,99.90
2019-03-06T04:44:19.590Z,99.90
2019-03-06T04:46:50.164Z,99.90
2019-03-06T04:49:24.538Z,99.90
2019-03-06T04:51:56.974Z,99.90
2019-03-06T04:54:27.596Z,99.90
2019-03-06T04:56:59.849Z,99.90
2019-03-06T04:59:32.147Z,99.90
2019-03-06T05:02:04.760Z,99.90
2019-03-06T05:04:35.393Z,99.90
2019-03-06T05:07:06.060Z,99.90
2019-03-06T05:09:39.409Z,99.90
2019-03-06T05:12:09.984Z,99.90
2019-03-06T05:14:47.782Z,99.90
2019-03-06T05:17:38.248Z,99.90
2019-03-06T05:20:10.785Z,99.90
2019-03-06T05:22:44.474Z,99.90
2019-03-06T05:25:17.018Z,99.90
2019-03-06T05:27:48.073Z,99.90
2019-03-06T05:30:20.690Z,99.90
2019-03-06T05:32:59.973Z,99.90
2019-03-06T05:36:04.746Z,99.90
2019-03-06T05:38:39.522Z,99.90
2019-03-06T05:41:13.205Z,99.90
2019-03-06T05:43:44.936Z,99.90
2019-03-06T05:46:17.911Z,99.90
2019-03-06T05:48:51.655Z,99.90
2019-03-06T05:51:22.261Z,99.90
2019-03-06T05:53:53.791Z,99.90
2019-03-06T05:56:26.556Z,99.90
2019-03-06T05:58:59.805Z,99.90
2019-03-06T06:01:30.420Z,99.90
2019-03-06T06:04:01.059Z,99.90
2019-03-06T06:06:34.570Z,99.90
2019-03-06T06:09:07.018Z,99.90
2019-03-06T06:11:41.047Z,99.90
2019-03-06T06:14:11.822Z,99.90
2019-03-06T06:16:46.102Z,99.90
2019-03-06T06:19:16.440Z,99.90
2019-03-06T06:22:24.651Z,99.90
2019-03-06T06:24:55.355Z,99.90
2019-03-06T06:27:26.181Z,99.90
2019-03-06T06:29:56.871Z,99.90
2019-03-06T06:32:27.460Z,99.90
2019-03-06T06:34:58.061Z,99.90
2019-03-06T06:37:29.111Z,99.90
2019-03-06T06:39:59.932Z,99.90
2019-03-06T06:42:30.718Z,99.90
2019-03-06T06:45:01.628Z,99.90
2019-03-06T06:47:32.261Z,99.90
2019-03-06T06:50:03.087Z,99.90
2019-03-06T06:53:25.755Z,99.90
2019-03-06T06:56:16.363Z,99.90
2019-03-06T06:58:53.855Z,99.90
2019-03-06T07:02:10.315Z,99.90
2019-03-06T07:05:31.887Z,99.90
2019-03-06T07:08:21.618Z,99.90
2019-03-06T07:11:32.853Z,99.90
2019-03-06T07:14:25.627Z,99.90
2019-03-06T07:17:27.517Z,99.90
2019-03-06T07:20:24.438Z,99.90
2019-03-06T07:23:12.406Z,99.90
2019-03-06T07:25:48.745Z,99.90
2019-03-06T07:28:39.903Z,99.90
2019-03-06T07:31:24.685Z,99.90
2019-03-06T07:34:14.452Z,99.90
2019-03-06T07:37:28.128Z,99.90
2019-03-06T07:39:58.784Z,99.90
2019-03-06T07:42:59.301Z,99.90
2019-03-06T07:45:53.912Z,99.90
2019-03-06T07:48:44.204Z,99.90
2019-03-06T07:51:37.208Z,99.90
2019-03-06T07:54:12.435Z,99.90
2019-03-06T07:56:47.003Z,99.90
2019-03-06T07:59:18.063Z,99.90
2019-03-06T08:02:01.714Z,99.90
2019-03-06T08:04:33.854Z,99.90
2019-03-06T08:07:15.490Z,99.90
2019-03-06T08:09:49.373Z,99.90
2019-03-06T08:12:48.705Z,99.90
2019-03-06T08:15:39.838Z,99.90
2019-03-06T08:18:38.565Z,99.70
2019-03-06T08:21:21.254Z,99.60
2019-03-06T08:24:15.100Z,98.80
2019-03-06T08:26:45.788Z,97.50
2019-03-06T08:29:16.421Z,96.70
2019-03-06T08:31:50.998Z,95.90
2019-03-06T08:34:22.729Z,95.90
2019-03-06T08:36:53.836Z,95.70
2019-03-06T08:39:27.567Z,95.30
2019-03-06T08:41:58.498Z,95.90
2019-03-06T08:44:29.089Z,96.40
2019-03-06T08:47:08.096Z,95.40
2019-03-06T08:49:55.816Z,92.70
2019-03-06T08:52:48.993Z,93.10
2019-03-06T08:55:32.388Z,95.10
2019-03-06T08:58:09.791Z,96.40
2019-03-06T09:01:09.944Z,95.70
2019-03-06T09:04:02.767Z,93.80
2019-03-06T09:06:55.382Z,92.20
2019-03-06T09:09:42.958Z,92.50
2019-03-06T09:12:44.978Z,93.10
2019-03-06T09:15:33.812Z,92.90
2019-03-06T09:18:11.972Z,91.60
2019-03-06T09:20:58.166Z,92.40
2019-03-06T09:23:58.039Z,92.50
2019-03-06T09:26:50.776Z,91.80
2019-03-06T09:29:43.171Z,91.10
2019-03-06T09:32:24.917Z,90.70
2019-03-06T09:35:13.451Z,89.10
2019-03-06T09:38:10.610Z,89.10
2019-03-06T09:40:44.906Z,88.40
2019-03-06T09:43:34.861Z,87.60
2019-03-06T09:46:16.130Z,84.80
2019-03-06T09:48:53.398Z,84.50
2019-03-06T09:51:35.315Z,87.10
2019-03-06T09:54:19.196Z,85.40
2019-03-06T09:57:14.916Z,83.00
2019-03-06T10:00:02.548Z,85.00
2019-03-06T10:02:57.845Z,84.20
2019-03-06T10:05:40.912Z,80.30
2019-03-06T10:08:31.526Z,78.60
2019-03-06T10:11:26.476Z,77.80
2019-03-06T10:14:17.308Z,79.50
2019-03-06T10:16:53.647Z,81.30
2019-03-06T10:19:43.806Z,81.90
2019-03-06T10:22:15.136Z,82.20
2019-03-06T10:24:45.904Z,77.30
2019-03-06T10:27:16.465Z,78.90
2019-03-06T10:29:50.544Z,76.50
2019-03-06T10:32:28.293Z,74.00
2019-03-06T10:34:58.848Z,72.30
2019-03-06T10:37:29.423Z,73.40
2019-03-06T10:40:00.047Z,72.50
2019-03-06T10:42:31.096Z,70.00
2019-03-06T10:45:05.675Z,62.60
2019-03-06T10:47:37.480Z,64.00
2019-03-06T10:50:11.633Z,64.70
2019-03-06T10:52:46.747Z,63.70
2019-03-06T10:55:20.836Z,67.40
2019-03-06T10:57:53.292Z,69.50
2019-03-06T11:00:29.112Z,70.10
2019-03-06T11:03:01.665Z,69.00
2019-03-06T11:05:36.583Z,66.90
2019-03-06T11:08:07.770Z,63.40
2019-03-06T11:10:44.139Z,62.40
2019-03-06T11:13:14.691Z,64.00
2019-03-06T11:15:45.503Z,63.40
2019-03-06T11:18:19.441Z,64.20
2019-03-06T11:20:55.248Z,66.50
2019-03-06T11:23:30.439Z,64.50
2019-03-06T11:26:07.351Z,68.50
2019-03-06T11:28:39.739Z,66.20
2019-03-06T11:31:10.996Z,66.90
2019-03-06T11:33:42.409Z,65.70
2019-03-06T11:36:13.116Z,66.80
2019-03-06T11:38:44.359Z,64.40
2019-03-06T11:41:17.183Z,64.20
2019-03-06T11:43:51.587Z,66.80
2019-03-06T11:46:23.977Z,66.90
2019-03-06T11:48:54.561Z,66.20
2019-03-06T11:51:28.831Z,64.80
2019-03-06T11:54:04.803Z,62.60
2019-03-06T11:56:36.349Z,64.40
2019-03-06T11:59:06.977Z,62.00
2019-03-06T12:01:48.065Z,62.80
2019-03-06T12:04:15.663Z,63.00
2019-03-06T12:06:49.056Z,62.20
2019-03-06T12:09:33.538Z,63.60
2019-03-06T12:12:07.867Z,65.30
2019-03-06T12:14:38.667Z,63.30
2019-03-06T12:17:09.458Z,63.40
2019-03-06T12:19:43.211Z,58.60
2019-03-06T12:22:13.872Z,56.20
2019-03-06T12:24:45.767Z,54.70
2019-03-06T12:27:16.608Z,53.50
2019-03-06T12:29:47.215Z,52.40
2019-03-06T12:32:23.851Z,51.80
2019-03-06T12:34:54.465Z,54.40
2019-03-06T12:37:25.142Z,53.00
2019-03-06T12:39:55.865Z,53.50
2019-03-06T12:42:26.860Z,54.90
2019-03-06T12:44:57.319Z,55.10
2019-03-06T12:47:30.563Z,55.70
2019-03-06T12:50:05.648Z,56.30
2019-03-06T12:52:34.296Z,53.80
2019-03-06T12:55:10.115Z,55.50
2019-03-06T12:57:42.315Z,59.60
2019-03-06T13:00:17.959Z,61.40
2019-03-06T13:02:52.705Z,59.10
2019-03-06T13:05:24.628Z,56.70
2019-03-06T13:07:55.779Z,56.50
2019-03-06T13:10:26.568Z,56.00
2019-03-06T13:12:57.138Z,54.00
2019-03-06T13:15:27.796Z,54.40
2019-03-06T13:17:59.707Z,55.00
2019-03-06T13:20:30.199Z,56.10
2019-03-06T13:23:05.072Z,58.30
2019-03-06T13:25:35.656Z,60.10
2019-03-06T13:28:09.105Z,61.40
2019-03-06T13:30:41.602Z,61.60
2019-03-06T13:33:24.985Z,60.90
2019-03-06T13:35:58.578Z,60.80
2019-03-06T13:38:33.611Z,59.30
2019-03-06T13:41:04.327Z,58.30
2019-03-06T13:43:37.878Z,61.70
2019-03-06T13:46:12.399Z,61.60
2019-03-06T13:48:46.206Z,61.60
2019-03-06T13:51:21.579Z,62.00
2019-03-06T13:53:52.075Z,64.20
2019-03-06T13:56:23.123Z,65.00
2019-03-06T13:58:57.692Z,65.50
2019-03-06T14:01:30.207Z,65.90
2019-03-06T14:04:01.731Z,65.80
2019-03-06T14:06:33.266Z,65.20
2019-03-06T14:09:08.841Z,65.00
2019-03-06T14:11:41.612Z,64.70
2019-03-06T14:14:15.556Z,65.10
2019-03-06T14:16:48.026Z,66.10
2019-03-06T14:19:24.068Z,66.20
2019-03-06T14:21:57.522Z,66.00
2019-03-06T14:24:34.752Z,66.70
2019-03-06T14:27:08.221Z,68.40
2019-03-06T14:29:38.739Z,68.00
2019-03-06T14:32:14.957Z,68.70
2019-03-06T14:34:44.444Z,69.20
2019-03-06T14:37:17.274Z,69.10
2019-03-06T14:39:47.920Z,69.70
2019-03-06T14:42:18.673Z,68.70
2019-03-06T14:44:49.378Z,69.70
2019-03-06T14:47:26.072Z,71.30
2019-03-06T14:50:01.720Z,68.70
2019-03-06T14:52:40.719Z,69.40
2019-03-06T14:55:12.055Z,69.90
2019-03-06T14:57:42.738Z,70.80
2019-03-06T15:00:16.737Z,69.90
2019-03-06T15:02:49.247Z,71.00
2019-03-06T15:05:23.348Z,71.30
2019-03-06T15:07:56.878Z,71.80
2019-03-06T15:10:27.543Z,71.90
2019-03-06T15:12:58.127Z,73.10
2019-03-06T15:15:30.369Z,72.50
2019-03-06T15:18:10.143Z,72.60
2019-03-06T15:20:37.944Z,73.30
2019-03-06T15:23:11.594Z,74.00
2019-03-06T15:25:45.695Z,74.20
2019-03-06T15:28:16.288Z,73.90
2019-03-06T15:30:47.614Z,74.40
2019-03-06T15:33:19.641Z,75.10
2019-03-06T15:35:50.529Z,76.40
2019-03-06T15:38:21.149Z,76.20
2019-03-06T15:40:51.989Z,76.70
2019-03-06T15:43:27.240Z,77.70
2019-03-06T15:46:01.846Z,78.40
2019-03-06T15:48:32.424Z,78.90
2019-03-06T15:51:03.824Z,79.90
2019-03-06T15:53:37.245Z,80.60
2019-03-06T15:56:11.752Z,80.80
2019-03-06T15:58:42.479Z,82.00
2019-03-06T16:01:13.418Z,83.10
2019-03-06T16:03:44.512Z,83.10
2019-03-06T16:06:20.311Z,83.60
2019-03-06T16:09:02.715Z,84.30
2019-03-06T16:11:58.816Z,84.10
2019-03-06T16:14:46.085Z,84.20
2019-03-06T16:17:16.717Z,83.20
2019-03-06T16:19:51.813Z,84.00
2019-03-06T16:22:22.415Z,83.90
2019-03-06T16:24:55.313Z,84.60
2019-03-06T16:27:26.356Z,84.20
2019-03-06T16:29:58.001Z,85.60
2019-03-06T16:32:31.673Z,85.20
2019-03-06T16:35:05.251Z,85.40
2019-03-06T16:37:36.457Z,85.20
2019-03-06T16:40:13.132Z,85.70
2019-03-06T16:42:44.220Z,85.20
2019-03-06T16:45:16.420Z,85.40
2019-03-06T16:47:48.671Z,85.80
2019-03-06T16:50:19.593Z,85.90
2019-03-06T16:52:52.004Z,86.30
2019-03-06T16:55:24.760Z,86.00
2019-03-06T16:57:55.700Z,87.10
2019-03-06T17:00:28.772Z,86.90
2019-03-06T17:02:59.960Z,87.20
2019-03-06T17:05:33.286Z,87.90
2019-03-06T17:08:04.330Z,88.00
2019-03-06T17:10:36.820Z,88.00
2019-03-06T17:13:07.887Z,88.30
2019-03-06T17:15:39.756Z,89.00
2019-03-06T17:18:10.576Z,88.80
2019-03-06T17:20:42.660Z,89.30
2019-03-06T17:23:13.227Z,89.60
2019-03-06T17:25:43.854Z,89.70
2019-03-06T17:28:16.916Z,89.70
2019-03-06T17:30:47.546Z,89.60
2019-03-06T17:33:21.443Z,90.00
2019-03-06T17:35:53.276Z,90.00
2019-03-06T17:38:29.359Z,90.10
2019-03-06T17:41:02.133Z,90.10
2019-03-06T17:43:34.287Z,90.20
2019-03-06T17:46:09.791Z,90.30
2019-03-06T17:48:40.353Z,90.40
2019-03-06T17:51:12.721Z,90.20
2019-03-06T17:53:43.671Z,90.40
2019-03-06T17:56:14.134Z,90.50
2019-03-06T17:58:45.688Z,90.50
2019-03-06T18:01:20.528Z,90.80
2019-03-06T18:04:19.584Z,90.90
2019-03-06T18:06:50.199Z,90.90
2019-03-06T18:09:22.539Z,91.00
2019-03-06T18:11:56.340Z,90.90
2019-03-06T18:14:27.567Z,90.90
2019-03-06T18:17:05.582Z,91.10
2019-03-06T18:19:38.351Z,91.00
2019-03-06T18:22:10.882Z,90.90
2019-03-06T18:24:43.663Z,91.00
2019-03-06T18:27:16.408Z,91.10
2019-03-06T18:29:48.428Z,91.30
2019-03-06T18:32:19.180Z,91.20
2019-03-06T18:34:54.948Z,91.20
2019-03-06T18:37:30.080Z,91.10
2019-03-06T18:40:02.435Z,91.20
2019-03-06T18:42:33.185Z,91.30
2019-03-06T18:45:07.163Z,91.20
2019-03-06T18:47:37.826Z,91.00
2019-03-06T18:50:10.597Z,90.80
2019-03-06T18:52:41.299Z,90.70
2019-03-06T18:55:12.060Z,90.80
2019-03-06T18:57:42.827Z,90.80
2019-03-06T19:00:18.755Z,90.60
2019-03-06T19:03:02.469Z,90.60
2019-03-06T19:05:33.464Z,90.40
2019-03-06T19:08:04.196Z,90.30
2019-03-06T19:10:35.985Z,90.40
2019-03-06T19:13:06.696Z,90.10
2019-03-06T19:15:37.249Z,90.10
2019-03-06T19:18:07.868Z,90.00
2019-03-06T19:20:38.584Z,90.00
2019-03-06T19:23:09.137Z,90.10
2019-03-06T19:25:39.671Z,89.60
2019-03-06T19:28:13.518Z,89.70
2019-03-06T19:30:44.044Z,89.10
2019-03-06T19:33:14.730Z,88.40
2019-03-06T19:35:45.244Z,87.80
2019-03-06T19:38:15.796Z,88.20
2019-03-06T19:40:46.844Z,87.90
2019-03-06T19:43:17.346Z,87.00
2019-03-06T19:45:47.955Z,87.30
2019-03-06T19:48:18.558Z,86.70
2019-03-06T19:50:49.367Z,86.50
2019-03-06T19:53:19.981Z,86.50
2019-03-06T19:55:51.796Z,86.30
2019-03-06T19:58:22.453Z,86.10
2019-03-06T20:00:53.056Z,86.00
2019-03-06T20:03:23.760Z,86.20
2019-03-06T20:05:54.415Z,86.20
2019-03-06T20:08:24.951Z,85.90
2019-03-06T20:10:55.788Z,86.30
2019-03-06T20:13:26.507Z,86.20
2019-03-06T20:15:57.164Z,86.50
2019-03-06T20:18:27.872Z,86.30
2019-03-06T20:20:58.432Z,86.30
2019-03-06T20:23:29.091Z,86.50
2019-03-06T20:25:59.991Z,85.80
2019-03-06T20:28:34.562Z,86.40
2019-03-06T20:31:06.639Z,86.50
2019-03-06T20:33:40.031Z,86.50
2019-03-06T20:36:12.168Z,86.00
2019-03-06T20:38:42.926Z,86.00
2019-03-06T20:41:13.759Z,85.60
2019-03-06T20:43:50.974Z,85.70
2019-03-06T20:46:23.074Z,85.60
2019-03-06T20:48:56.433Z,85.80
2019-03-06T20:51:27.168Z,85.70
2019-03-06T20:54:03.556Z,85.80
2019-03-06T20:56:34.236Z,86.10
2019-03-06T20:59:08.751Z,85.70
2019-03-06T21:01:40.504Z,86.10
2019-03-06T21:04:11.077Z,86.50
2019-03-06T21:06:41.840Z,86.70
2019-03-06T21:09:17.180Z,86.10
2019-03-06T21:11:48.061Z,86.70
2019-03-06T21:14:30.371Z,86.90
2019-03-06T21:17:04.282Z,86.80
2019-03-06T21:19:37.961Z,87.20
2019-03-06T21:22:10.766Z,87.10
2019-03-06T21:24:43.160Z,86.90
2019-03-06T21:27:15.256Z,87.20
2019-03-06T21:29:48.207Z,87.60
2019-03-06T21:32:20.434Z,87.30
2019-03-06T21:34:52.164Z,88.00
2019-03-06T21:37:25.409Z,87.40
2019-03-06T21:39:57.301Z,87.70
2019-03-06T21:42:27.878Z,88.30
2019-03-06T21:44:59.553Z,88.00
2019-03-06T21:47:31.742Z,87.80
2019-03-06T21:50:10.959Z,87.70
2019-03-06T21:52:45.823Z,88.30
2019-03-06T21:55:16.775Z,88.40
2019-03-06T21:57:50.496Z,88.40
2019-03-06T22:00:30.738Z,88.40
2019-03-06T22:03:02.526Z,88.80
2019-03-06T22:05:35.745Z,89.20
2019-03-06T22:08:09.409Z,89.00
2019-03-06T22:10:43.068Z,89.50
2019-03-06T22:13:14.013Z,89.80
2019-03-06T22:15:45.062Z,90.00
2019-03-06T22:18:15.732Z,90.00
2019-03-06T22:20:46.418Z,89.90
2019-03-06T22:23:19.265Z,89.80
2019-03-06T22:25:50.973Z,90.10
2019-03-06T22:28:22.769Z,90.30
2019-03-06T22:30:53.252Z,90.40
2019-03-06T22:33:25.323Z,90.50
2019-03-06T22:35:55.917Z,90.40
2019-03-06T22:38:32.080Z,90.30
2019-03-06T22:41:03.746Z,90.40
2019-03-06T22:43:34.236Z,90.20
2019-03-06T22:46:07.703Z,90.20
2019-03-06T22:48:38.449Z,90.20
2019-03-06T22:51:10.754Z,90.10
2019-03-06T22:53:43.108Z,90.10
2019-03-06T22:56:16.711Z,90.20
2019-03-06T22:58:49.976Z,90.40
2019-03-06T23:01:41.712Z,90.40
2019-03-06T23:04:13.932Z,90.60
2019-03-06T23:06:44.524Z,90.40
2019-03-06T23:09:15.394Z,90.60
2019-03-06T23:11:52.122Z,90.70
2019-03-06T23:14:22.680Z,90.90
2019-03-06T23:16:55.436Z,91.00
2019-03-06T23:19:27.724Z,91.10
2019-03-06T23:21:59.725Z,91.20
2019-03-06T23:24:30.404Z,91.10
2019-03-06T23:27:05.048Z,91.00
2019-03-06T23:29:36.743Z,91.20
2019-03-06T23:32:07.279Z,91.30
2019-03-06T23:34:37.844Z,91.30
2019-03-06T23:37:08.395Z,91.30
2019-03-06T23:39:38.899Z,91.50
2019-03-06T23:42:12.162Z,91.60
2019-03-06T23:44:43.780Z,91.90
2019-03-06T23:47:14.319Z,92.40
2019-03-06T23:49:44.832Z,92.40
2019-03-06T23:52:22.946Z,92.90
2019-03-06T23:54:55.176Z,92.80
2019-03-06T23:57:25.813Z,93.10
2019-03-06T23:59:56.852Z,93.30
